Time;durP1;ratioP1;P1;durP2;ratioP2;P2;SDS_P1;SDS_P2;PMS_P1;PMS_P2;Temp;Humidity;BMP_temperature;BMP_pressure;BME280_temperature;BME280_humidity;BME280_pressure;Samples;Min_cycle;Max_cycle;Signal;HPM_P1;HPM_P2
2021/12/30 00:01:57;;;;;;;1019.28;955.67;;;;;;;20.93;45.75;100920.78;5023840;28;20053;-84
2021/12/30 00:04:23;;;;;;;1023.83;959.50;;;;;;;20.93;45.90;100930.94;5033147;28;20060;-84
2021/12/30 00:06:49;;;;;;;1017.83;954.45;;;;;;;20.92;45.75;100932.91;5020825;28;20037;-83
2021/12/30 00:09:15;;;;;;;1019.15;955.72;;;;;;;20.92;45.85;100929.34;5009907;28;20049;-84
2021/12/30 00:11:41;;;;;;;1020.75;956.92;;;;;;;20.91;45.71;100925.75;5015741;28;20038;-88
2021/12/30 00:14:07;;;;;;;1021.60;957.70;;;;;;;20.92;45.30;100926.59;5013964;28;20533;-84
2021/12/30 00:16:33;;;;;;;1018.38;955.10;;;;;;;20.91;45.43;100933.19;5013161;28;20095;-86
2021/12/30 00:18:59;;;;;;;1014.25;951.38;;;;;;;20.91;45.67;100939.50;5007335;28;20076;-91
2021/12/30 00:21:26;;;;;;;1015.78;952.80;;;;;;;20.90;45.44;100937.88;5010910;28;20030;-86
2021/12/30 00:23:52;;;;;;;1014.60;951.83;;;;;;;20.91;46.03;100930.44;5013824;28;20042;-88
2021/12/30 00:26:18;;;;;;;1022.83;959.05;;;;;;;20.91;45.84;100935.94;5014683;28;20034;-86
2021/12/30 00:28:44;;;;;;;1020.22;956.40;;;;;;;20.91;45.54;100935.94;5023791;28;20044;-88
2021/12/30 00:31:10;;;;;;;1020.35;956.38;;;;;;;20.92;45.49;100935.63;5016810;28;20033;-87
2021/12/30 00:33:36;;;;;;;1019.88;956.25;;;;;;;20.93;45.75;100939.19;5044645;28;20520;-87
2021/12/30 00:36:06;;;;;;;1025.20;960.83;;;;;;;20.93;45.65;100931.75;5022526;28;20033;-87
2021/12/30 00:38:37;;;;;;;1019.67;955.92;;;;;;;20.94;45.65;100938.91;5045320;28;20033;-86
2021/12/30 00:41:02;;;;;;;1026.20;961.55;;;;;;;20.93;45.76;100944.69;5031610;28;20033;-85
2021/12/30 00:43:27;;;;;;;1021.10;956.92;;;;;;;20.93;45.42;100942.75;5033892;28;20140;-84
2021/12/30 00:45:53;;;;;;;1022.30;957.90;;;;;;;20.94;45.89;100946.28;5020411;28;20449;-86
2021/12/30 00:48:19;;;;;;;1019.00;955.10;;;;;;;20.93;45.54;100953.72;5034872;28;20040;-86
2021/12/30 00:50:45;;;;;;;1019.13;955.33;;;;;;;20.94;45.95;100960.88;5044605;28;20045;-85
2021/12/30 00:53:12;;;;;;;1017.05;953.88;;;;;;;20.93;45.78;100950.19;4998358;28;20120;-86
2021/12/30 00:55:39;;;;;;;994.67;934.30;;;;;;;20.93;45.78;100955.66;5028914;28;20041;-86
2021/12/30 00:58:05;;;;;;;991.15;931.17;;;;;;;20.93;45.54;100956.47;5030932;28;20060;-86
2021/12/30 01:00:31;;;;;;;999.55;938.95;;;;;;;20.94;45.90;100963.59;5008869;28;20033;-86
2021/12/30 01:02:57;;;;;;;1003.85;942.80;;;;;;;20.93;45.85;100959.22;4998703;28;20140;-85
2021/12/30 01:05:23;;;;;;;998.95;938.78;;;;;;;20.93;45.40;100966.66;5041023;28;20624;-82
2021/12/30 01:07:49;;;;;;;1005.65;944.78;;;;;;;20.94;45.79;100969.09;5014362;28;20030;-86
2021/12/30 01:10:20;;;;;;;996.92;936.92;;;;;;;20.94;45.89;100976.50;5014900;28;20033;-85
2021/12/30 01:12:45;;;;;;;998.45;938.40;;;;;;;20.94;45.81;100977.34;5022621;28;20061;-85
2021/12/30 01:15:12;;;;;;;1002.33;941.47;;;;;;;20.93;45.55;100972.94;5026642;28;20064;-85
2021/12/30 01:17:47;;;;;;;1005.22;944.00;;;;;;;20.94;45.75;100973.75;4997394;28;20082;-86
2021/12/30 01:20:17;;;;;;;1003.80;942.85;;;;;;;20.93;45.46;100972.94;5018483;28;20060;-85
2021/12/30 01:22:42;;;;;;;998.35;938.10;;;;;;;20.92;45.45;100971.34;5035987;28;20040;-85
2021/12/30 01:25:11;;;;;;;1005.38;943.90;;;;;;;20.92;45.33;100971.34;5032099;28;20116;-85
2021/12/30 01:27:39;;;;;;;1006.42;945.03;;;;;;;20.92;45.58;100968.59;5013496;28;20140;-86
2021/12/30 01:30:10;;;;;;;1001.00;940.22;;;;;;;20.93;45.63;100966.66;4999181;28;20034;-85
2021/12/30 01:32:36;;;;;;;1009.90;948.15;;;;;;;20.93;45.31;100966.66;5039195;28;20095;-86
2021/12/30 01:35:04;;;;;;;1008.72;946.92;;;;;;;20.92;45.64;100963.09;5043280;28;20539;-85
2021/12/30 01:37:29;;;;;;;1006.78;945.22;;;;;;;20.93;45.74;100963.91;5017406;28;20033;-84
2021/12/30 01:39:55;;;;;;;1000.83;940.15;;;;;;;20.91;45.92;100964.19;5033778;28;20102;-85
2021/12/30 01:42:20;;;;;;;1004.33;943.30;;;;;;;20.92;45.24;100965.03;5028798;28;20033;-85
2021/12/30 01:44:46;;;;;;;1002.95;942.05;;;;;;;20.92;45.80;100976.03;5033171;28;20039;-86
2021/12/30 01:47:12;;;;;;;1002.25;941.30;;;;;;;20.92;45.44;100978.78;5028832;28;20499;-86
2021/12/30 01:49:37;;;;;;;1006.78;945.33;;;;;;;20.91;45.20;100961.44;5017785;28;20064;-86
2021/12/30 01:52:04;;;;;;;1002.55;941.50;;;;;;;20.92;45.32;100956.81;5032942;28;20060;-87
2021/12/30 01:54:29;;;;;;;1002.63;941.58;;;;;;;20.91;45.59;100957.91;5038133;28;20037;-82
2021/12/30 01:57:00;;;;;;;996.05;935.72;;;;;;;20.92;45.56;100954.06;5013798;28;20064;-87
2021/12/30 01:59:25;;;;;;;997.90;937.45;;;;;;;20.90;45.27;100957.09;5014292;28;20485;-85
2021/12/30 02:01:56;;;;;;;1005.97;944.70;;;;;;;20.90;45.27;100959.84;5027317;28;20045;-85
2021/12/30 02:04:26;;;;;;;998.95;938.58;;;;;;;20.91;45.44;100957.91;4997680;28;20029;-86
2021/12/30 02:06:53;;;;;;;1001.63;940.85;;;;;;;20.90;45.53;100959.84;5033142;28;20033;-86
2021/12/30 02:09:20;;;;;;;992.30;932.58;;;;;;;20.90;45.42;100964.53;5019837;28;20121;-88
2021/12/30 02:11:46;;;;;;;999.70;939.42;;;;;;;20.91;45.13;100966.13;4996784;28;20421;-86
2021/12/30 02:14:12;;;;;;;997.72;937.55;;;;;;;20.90;45.72;100967.28;5013980;28;20025;-85
2021/12/30 02:16:38;;;;;;;993.08;933.40;;;;;;;20.90;45.28;100973.56;5013551;28;20067;-86
2021/12/30 02:19:03;;;;;;;995.83;935.78;;;;;;;20.90;45.09;100968.06;5006876;28;20045;-86
2021/12/30 02:21:29;;;;;;;997.65;937.53;;;;;;;20.90;45.52;100964.53;5018698;28;20033;-85
2021/12/30 02:23:57;;;;;;;987.03;928.20;;;;;;;20.90;45.24;100961.78;5021569;28;20045;-86
2021/12/30 02:26:22;;;;;;;989.88;930.90;;;;;;;20.89;45.22;100951.91;5017513;28;20029;-86
2021/12/30 02:28:47;;;;;;;993.75;934.15;;;;;;;20.89;45.23;100960.97;4997017;28;20492;-86
2021/12/30 02:31:16;;;;;;;991.80;932.67;;;;;;;20.90;45.65;100964.53;4997241;28;20033;-85
2021/12/30 02:33:43;;;;;;;987.92;929.13;;;;;;;20.89;45.31;100965.63;5012893;28;20045;-86
2021/12/30 02:36:10;;;;;;;996.65;936.97;;;;;;;20.89;45.29;100963.72;5042625;28;20036;-87
2021/12/30 02:38:36;;;;;;;985.40;926.90;;;;;;;20.89;45.31;100962.88;5032586;28;20029;-86
2021/12/30 02:41:03;;;;;;;982.65;924.45;;;;;;;20.89;45.42;100968.38;5035244;28;20489;-84
2021/12/30 02:43:31;;;;;;;987.72;928.67;;;;;;;20.89;45.12;100976.59;5041834;28;20039;-86
2021/12/30 02:45:59;;;;;;;996.55;936.60;;;;;;;20.89;45.04;100971.13;5040514;28;20418;-86
2021/12/30 02:48:28;;;;;;;999.67;939.40;;;;;;;20.88;45.34;100973.06;5017232;28;20111;-87
2021/12/30 02:50:56;;;;;;;999.28;938.95;;;;;;;20.88;45.14;100972.25;5034708;28;20044;-87
2021/12/30 02:53:22;;;;;;;999.15;938.80;;;;;;;20.88;45.38;100973.06;5036232;28;20033;-86
2021/12/30 02:55:49;;;;;;;994.67;934.67;;;;;;;20.87;45.30;100976.94;5030817;28;20116;-87
2021/12/30 02:58:15;;;;;;;998.05;937.80;;;;;;;20.88;45.19;100972.25;5034909;28;20469;-88
2021/12/30 03:00:44;;;;;;;1002.65;941.70;;;;;;;20.88;45.28;100980.50;5021298;28;20041;-87
2021/12/30 03:03:21;;;;;;;1004.42;943.08;;;;;;;20.87;45.58;100976.94;5029606;28;20044;-87
2021/12/30 03:05:48;;;;;;;999.55;939.00;;;;;;;20.88;45.30;100975.00;5037285;28;20123;-88
2021/12/30 03:08:14;;;;;;;1008.33;946.75;;;;;;;20.87;45.40;100978.88;5020016;28;20048;-91
2021/12/30 03:10:39;;;;;;;1007.58;946.08;;;;;;;20.87;45.40;100984.38;5054116;28;20035;-87
2021/12/30 03:13:08;;;;;;;999.05;938.60;;;;;;;20.87;45.17;100985.16;5049675;28;20116;-87
2021/12/30 03:15:33;;;;;;;;;;;;;;;20.85;45.41;100992.91;5055141;28;20051;-87
2021/12/30 03:17:59;;;;;;;1003.70;943.05;;;;;;;20.85;45.53;100989.34;5036088;28;19913;-87
2021/12/30 03:20:25;;;;;;;1008.45;947.13;;;;;;;20.85;45.43;100997.56;5051077;28;20057;-86
2021/12/30 03:22:50;;;;;;;1000.00;939.53;;;;;;;20.85;45.44;101000.31;5035867;28;20041;-86
2021/12/30 03:25:16;;;;;;;1006.97;945.67;;;;;;;20.85;45.51;100992.91;5028401;28;20037;-86
2021/12/30 03:27:42;;;;;;;997.97;937.78;;;;;;;20.85;45.22;101003.06;5046264;28;20036;-87
2021/12/30 03:30:11;;;;;;;994.63;934.90;;;;;;;20.85;45.49;100998.38;5016714;28;20143;-87
2021/12/30 03:32:37;;;;;;;1009.53;947.92;;;;;;;20.85;45.16;100998.38;5053456;28;20536;-83
2021/12/30 03:35:03;;;;;;;1002.78;941.88;;;;;;;20.85;45.14;101005.81;5035964;28;20065;-88
2021/12/30 03:37:29;;;;;;;1002.55;941.75;;;;;;;20.85;45.21;101000.31;5049856;28;20040;-87
2021/12/30 03:39:54;;;;;;;999.22;938.92;;;;;;;20.85;45.30;101000.31;5053375;28;20061;-87
2021/12/30 03:42:19;;;;;;;999.92;939.60;;;;;;;20.86;45.62;100993.69;5035565;28;20412;-86
2021/12/30 03:44:45;;;;;;;1000.70;940.20;;;;;;;20.86;45.50;100991.75;5001647;28;20033;-86
2021/12/30 03:47:15;;;;;;;1004.50;943.33;;;;;;;20.86;45.29;100996.44;5047434;28;20079;-86
2021/12/30 03:49:44;;;;;;;1005.05;944.13;;;;;;;20.86;45.51;100999.19;5017182;28;20084;-86
2021/12/30 03:52:18;;;;;;;1010.85;949.08;;;;;;;20.85;45.22;100995.63;5020070;28;20534;-87
2021/12/30 03:54:45;;;;;;;1007.95;946.53;;;;;;;20.85;45.07;100995.63;5035781;28;20164;-87
2021/12/30 03:57:11;;;;;;;1003.35;942.47;;;;;;;20.85;45.28;100986.59;5034394;28;20036;-88
2021/12/30 03:59:36;;;;;;;1005.88;944.72;;;;;;;20.85;44.95;100997.56;5030808;28;20504;-87
2021/12/30 04:02:02;;;;;;;1005.88;944.80;;;;;;;20.85;45.22;101003.88;5032736;28;20034;-89
2021/12/30 04:04:27;;;;;;;1009.13;947.55;;;;;;;20.85;45.44;101008.56;5016486;28;20033;-88
2021/12/30 04:06:53;;;;;;;998.25;938.08;;;;;;;20.84;45.17;101004.16;5031367;28;20112;-87
2021/12/30 04:09:18;;;;;;;996.50;936.40;;;;;;;20.84;45.10;101007.75;5018854;28;20477;-86
2021/12/30 04:11:44;;;;;;;996.58;936.58;;;;;;;20.85;45.15;101023.09;5043637;28;20078;-87
2021/12/30 04:14:09;;;;;;;1001.10;940.50;;;;;;;20.85;45.23;101016.78;5019768;28;20092;-88
2021/12/30 04:16:36;;;;;;;996.92;936.90;;;;;;;20.83;45.65;101008.84;5022355;28;20461;-88
2021/12/30 04:19:03;;;;;;;999.55;938.85;;;;;;;20.83;45.43;101017.09;5035438;28;20068;-86
2021/12/30 04:21:28;;;;;;;997.17;936.92;;;;;;;20.85;45.33;101017.59;4983752;28;20688;-87
2021/12/30 04:23:54;;;;;;;1005.30;944.13;;;;;;;20.84;44.99;101006.91;4998535;28;20067;-87
2021/12/30 04:26:19;;;;;;;1001.95;941.10;;;;;;;20.83;45.45;101011.59;5012166;28;20059;-87
2021/12/30 04:28:45;;;;;;;998.72;938.47;;;;;;;20.83;45.38;101019.84;5052227;28;20116;-86
2021/12/30 04:31:11;;;;;;;1005.67;944.53;;;;;;;20.83;45.16;101006.09;5033897;28;20029;-87
2021/12/30 04:33:36;;;;;;;1008.67;947.28;;;;;;;20.83;45.29;101019.84;5009760;28;20057;-87
2021/12/30 04:36:02;;;;;;;1010.85;948.97;;;;;;;20.83;45.37;101011.59;4999229;28;20493;-86
2021/12/30 04:38:30;;;;;;;1007.28;945.85;;;;;;;20.85;45.41;101016.78;5031497;28;20037;-88
2021/12/30 04:40:55;;;;;;;1004.15;943.15;;;;;;;20.85;45.22;101022.28;5020456;28;20032;-85
2021/12/30 04:43:21;;;;;;;1007.75;946.17;;;;;;;20.85;44.98;101025.03;5006318;28;20393;-86
2021/12/30 04:45:47;;;;;;;1008.92;947.50;;;;;;;20.85;45.37;101019.53;5051856;28;20033;-86
2021/12/30 04:48:14;;;;;;;1005.65;944.35;;;;;;;20.85;45.43;101025.84;5042286;28;20085;-88
2021/12/30 04:50:40;;;;;;;1003.47;942.45;;;;;;;20.83;45.74;101019.84;5022383;28;20045;-87
2021/12/30 04:53:05;;;;;;;991.72;932.45;;;;;;;20.84;45.39;101028.88;5015042;28;20643;-89
2021/12/30 04:55:31;;;;;;;1004.33;943.22;;;;;;;20.85;45.46;101036.03;5033080;28;20037;-87
2021/12/30 04:57:56;;;;;;;1004.85;944.00;;;;;;;20.85;45.46;101033.28;5019156;28;20048;-88
2021/12/30 05:00:22;;;;;;;997.15;937.42;;;;;;;20.84;45.54;101034.38;5006828;28;20043;-88
2021/12/30 05:05:21;;;;;;;995.53;935.67;;;;;;;20.83;45.42;101035.50;5035741;28;20037;-89
2021/12/30 05:07:47;;;;;;;993.22;933.90;;;;;;;20.84;45.29;101042.59;5032937;28;20041;-84
2021/12/30 05:10:12;;;;;;;994.08;934.38;;;;;;;20.83;45.41;101039.06;5009389;28;20061;-88
2021/12/30 05:12:37;;;;;;;996.60;936.85;;;;;;;20.83;45.55;101050.03;5005321;28;20063;-89
2021/12/30 05:15:03;;;;;;;992.70;933.42;;;;;;;20.84;45.47;101059.91;5017414;28;20032;-88
2021/12/30 05:17:30;;;;;;;996.67;936.90;;;;;;;20.83;45.26;101060.22;5027750;28;20123;-88
2021/12/30 05:19:55;;;;;;;998.42;938.38;;;;;;;20.83;45.54;101057.47;4996164;28;20034;-87
2021/12/30 05:22:20;;;;;;;997.83;937.60;;;;;;;20.82;45.63;101062.16;5043621;28;20035;-86
2021/12/30 05:24:46;;;;;;;986.40;927.90;;;;;;;20.82;45.53;101069.59;5009669;28;20029;-88
2021/12/30 05:27:11;;;;;;;977.08;919.65;;;;;;;20.82;45.63;101073.13;5010773;28;20037;-87
2021/12/30 05:29:37;;;;;;;969.78;913.10;;;;;;;20.82;45.62;101062.16;5033042;28;20518;-87
2021/12/30 05:32:02;;;;;;;980.88;922.88;;;;;;;20.82;45.42;101078.63;5015119;28;20037;-86
2021/12/30 05:34:28;;;;;;;985.63;927.13;;;;;;;20.82;45.33;101078.63;5027235;28;20573;-89
2021/12/30 05:36:53;;;;;;;984.97;926.53;;;;;;;20.83;45.58;101077.50;5025753;28;20033;-88
2021/12/30 05:39:19;;;;;;;988.10;928.80;;;;;;;20.83;45.67;101076.69;4996930;28;20481;-87
2021/12/30 05:41:44;;;;;;;979.85;921.80;;;;;;;20.83;45.26;101071.19;5050331;28;20033;-86
2021/12/30 05:44:09;;;;;;;978.53;920.50;;;;;;;20.83;45.44;101090.41;5039513;28;20033;-87
2021/12/30 05:46:35;;;;;;;977.25;919.75;;;;;;;20.82;45.59;101077.81;5029900;28;20033;-87
2021/12/30 05:49:00;;;;;;;976.20;918.72;;;;;;;20.83;45.17;101083.00;5033784;28;20098;-87
2021/12/30 05:51:26;;;;;;;973.25;916.30;;;;;;;20.83;45.41;101087.66;5033452;28;20029;-86
2021/12/30 05:53:51;;;;;;;970.67;913.97;;;;;;;20.83;45.38;101073.94;5010608;28;20497;-82
2021/12/30 05:56:17;;;;;;;972.00;915.13;;;;;;;20.82;45.11;101086.84;5020427;28;20046;-87
2021/12/30 05:58:42;;;;;;;981.53;923.45;;;;;;;20.82;45.30;101078.63;5014460;28;20072;-87
2021/12/30 06:01:08;;;;;;;977.67;920.10;;;;;;;20.83;45.44;101076.69;4997968;28;20037;-87
2021/12/30 06:03:33;;;;;;;972.40;915.45;;;;;;;20.82;45.31;101077.81;5006985;28;20033;-86
2021/12/30 06:05:58;;;;;;;969.60;912.92;;;;;;;20.83;45.28;101087.66;4999702;28;20083;-88
2021/12/30 06:08:24;;;;;;;962.50;906.97;;;;;;;20.82;45.51;101080.56;5033681;28;20388;-87
2021/12/30 06:10:49;;;;;;;960.33;905.22;;;;;;;20.82;45.25;101080.56;5015900;28;20033;-86
2021/12/30 06:13:14;;;;;;;963.88;908.15;;;;;;;20.82;45.30;101092.34;5000079;28;20469;-84
2021/12/30 06:15:40;;;;;;;963.70;908.00;;;;;;;20.82;45.27;101086.06;4999296;28;20103;-85
2021/12/30 06:18:05;;;;;;;966.80;910.38;;;;;;;20.81;45.16;101079.72;5034670;28;20070;-87
2021/12/30 06:20:31;;;;;;;961.75;906.30;;;;;;;20.83;45.48;101095.91;5001603;28;20469;-86
2021/12/30 06:22:57;;;;;;;963.78;908.22;;;;;;;20.82;45.30;101083.31;5017099;28;20037;-86
2021/12/30 06:25:23;;;;;;;967.75;911.90;;;;;;;20.81;45.47;101082.47;5019261;28;20095;-85
2021/12/30 06:27:48;;;;;;;974.78;917.90;;;;;;;20.81;45.46;101081.66;5035610;28;20508;-86
2021/12/30 06:30:13;;;;;;;970.05;913.75;;;;;;;20.81;45.51;101081.66;5017566;28;20620;-87
2021/12/30 06:32:39;;;;;;;980.17;922.42;;;;;;;20.80;45.59;101078.09;5047202;28;20057;-87
2021/12/30 06:35:08;;;;;;;988.50;929.42;;;;;;;20.80;45.66;101082.78;5021870;28;20381;-84
2021/12/30 06:37:35;;;;;;;978.83;921.25;;;;;;;20.79;45.35;101084.72;5051674;28;20477;-87
2021/12/30 06:40:01;;;;;;;972.35;915.47;;;;;;;20.81;45.67;101087.16;5022946;28;20025;-86
2021/12/30 06:42:27;;;;;;;970.75;913.95;;;;;;;20.81;45.30;101100.88;5016751;28;20038;-92
2021/12/30 06:44:52;;;;;;;983.03;924.80;;;;;;;20.80;45.14;101108.31;5029162;28;20036;-86
2021/12/30 06:47:17;;;;;;;978.47;920.60;;;;;;;20.80;45.25;101108.31;5019434;28;20049;-88
2021/12/30 06:49:43;;;;;;;976.35;919.15;;;;;;;20.80;45.54;101115.72;5044670;28;20386;-84
2021/12/30 06:52:11;;;;;;;975.25;918.15;;;;;;;20.80;45.62;101115.72;5034177;28;20124;-85
2021/12/30 06:54:37;;;;;;;973.20;916.30;;;;;;;20.81;45.71;101122.84;5035553;28;20067;-88
2021/12/30 06:57:03;;;;;;;968.13;912.08;;;;;;;20.82;45.31;101119.00;5041331;28;20444;-87
2021/12/30 06:59:30;;;;;;;963.10;907.65;;;;;;;20.81;45.54;101111.84;5054796;28;20033;-87
2021/12/30 07:01:57;;;;;;;970.10;913.38;;;;;;;20.81;45.54;101122.84;5023063;28;20044;-84
2021/12/30 07:04:25;;;;;;;974.10;916.83;;;;;;;20.81;45.43;101126.41;5035374;28;20036;-83
2021/12/30 07:06:51;;;;;;;986.92;928.60;;;;;;;20.81;45.37;101126.41;5052449;28;20040;-86
2021/12/30 07:09:16;;;;;;;976.08;918.78;;;;;;;20.81;45.65;101140.13;5023804;28;20061;-85
2021/12/30 07:11:42;;;;;;;974.65;917.53;;;;;;;20.82;45.62;101146.47;5029413;28;20040;-87
2021/12/30 07:14:07;;;;;;;976.42;918.92;;;;;;;20.81;45.80;101153.84;5006771;28;20047;-86
2021/12/30 07:16:32;;;;;;;944.70;891.95;;;;;;;20.81;45.46;101151.09;5017286;28;20043;-87
2021/12/30 07:18:58;;;;;;;945.70;893.13;;;;;;;20.81;45.46;101153.03;5015447;28;20026;-82
2021/12/30 07:21:23;;;;;;;933.65;882.88;;;;;;;20.82;45.49;101162.94;5017323;28;20028;-89
2021/12/30 07:23:48;;;;;;;930.05;880.30;;;;;;;20.80;45.34;101157.72;5015866;28;20033;-89
2021/12/30 07:26:14;;;;;;;931.22;881.17;;;;;;;20.81;45.50;101172.25;5018192;28;20461;-88
2021/12/30 07:28:39;;;;;;;939.85;888.22;;;;;;;20.81;45.72;101164.84;5016835;28;20048;-88
2021/12/30 07:31:05;;;;;;;955.50;901.30;;;;;;;20.81;45.65;101164.84;5021006;28;20033;-86
2021/12/30 07:33:30;;;;;;;948.05;894.90;;;;;;;20.81;45.78;101166.78;5019305;28;20052;-89
2021/12/30 07:35:55;;;;;;;980.10;922.35;;;;;;;20.81;45.66;101158.53;5053923;28;20091;-89
2021/12/30 07:38:22;;;;;;;972.38;915.72;;;;;;;20.82;45.84;101171.16;5019503;28;20072;-86
2021/12/30 07:40:48;;;;;;;946.67;894.13;;;;;;;20.81;45.71;101164.84;5019233;28;20048;-87
2021/12/30 07:43:13;;;;;;;940.92;889.47;;;;;;;20.81;45.67;101175.00;5003576;28;20524;-88
2021/12/30 07:45:39;;;;;;;951.10;897.78;;;;;;;20.82;45.52;101168.41;5031167;28;20033;-85
2021/12/30 07:48:04;;;;;;;973.92;916.85;;;;;;;20.81;45.46;101167.59;5018309;28;20029;-87
2021/12/30 07:50:30;;;;;;;961.80;906.97;;;;;;;20.82;45.65;101174.72;5009213;28;20116;-85
2021/12/30 07:52:55;;;;;;;972.67;916.10;;;;;;;20.82;45.81;101171.16;5019531;28;20064;-92
2021/12/30 07:55:21;;;;;;;967.95;911.83;;;;;;;20.82;45.56;101179.41;5036491;28;20108;-91
2021/12/30 07:57:47;;;;;;;968.17;912.38;;;;;;;20.82;45.68;101184.88;5036696;28;20033;-92
2021/12/30 08:00:15;;;;;;;967.92;911.88;;;;;;;20.81;45.70;101186.78;5039410;28;20483;-92
2021/12/30 08:02:42;;;;;;;;;;;;;;;20.81;45.72;101191.47;5038716;28;20078;-90
2021/12/30 08:05:10;;;;;;;961.17;906.58;;;;;;;20.81;45.80;101194.22;5034588;28;19952;-92
2021/12/30 08:07:35;;;;;;;973.65;917.17;;;;;;;20.80;45.63;101204.41;5015061;28;20113;-90
2021/12/30 08:10:01;;;;;;;948.28;895.80;;;;;;;20.81;46.03;101205.22;5029527;28;20147;-88
2021/12/30 08:12:26;;;;;;;960.92;906.33;;;;;;;20.81;46.10;101208.75;5049479;28;20084;-88
2021/12/30 08:14:51;;;;;;;967.13;911.60;;;;;;;20.80;46.36;101204.41;5021157;28;20056;-86
2021/12/30 08:17:17;;;;;;;971.63;915.50;;;;;;;20.81;46.47;101197.78;5028042;28;20442;-87
2021/12/30 08:19:43;;;;;;;973.15;916.47;;;;;;;20.82;46.36;101204.91;5016301;28;20533;-89
2021/12/30 08:22:09;;;;;;;962.50;907.72;;;;;;;20.82;46.17;101202.19;5006445;28;20036;-88
2021/12/30 08:24:34;;;;;;;974.05;917.47;;;;;;;20.84;46.41;101212.84;5018596;28;20033;-85
2021/12/30 08:26:59;;;;;;;972.20;915.67;;;;;;;20.84;46.54;101199.09;5020916;28;20025;-86
2021/12/30 08:29:31;;;;;;;977.15;920.05;;;;;;;20.84;46.75;101201.84;5033436;28;20037;-88
2021/12/30 08:31:57;;;;;;;975.83;919.05;;;;;;;20.84;46.68;101210.94;5033929;28;20040;-89
2021/12/30 08:34:23;;;;;;;979.45;922.15;;;;;;;20.85;46.62;101222.72;5032676;28;20045;-85
2021/12/30 08:36:48;;;;;;;980.35;922.78;;;;;;;20.86;46.63;101221.59;5043976;28;20124;-82
2021/12/30 08:39:13;;;;;;;980.45;923.08;;;;;;;20.85;46.79;101237.25;5005339;28;20095;-85
2021/12/30 08:41:39;;;;;;;983.13;924.75;;;;;;;20.86;46.85;101246.31;5021937;28;20113;-84
2021/12/30 08:44:05;;;;;;;980.28;923.05;;;;;;;20.86;47.05;101244.38;5019828;28;20367;-85
2021/12/30 08:46:30;;;;;;;983.25;925.70;;;;;;;20.87;47.33;101250.69;5031136;28;20033;-87
2021/12/30 08:48:56;;;;;;;986.28;927.85;;;;;;;20.87;47.16;101250.69;5013059;28;20062;-88
2021/12/30 08:51:22;;;;;;;984.90;926.60;;;;;;;20.87;47.21;101256.19;5016617;28;20035;-88
2021/12/30 08:53:47;;;;;;;985.35;927.45;;;;;;;20.88;47.57;101264.13;5019685;28;20131;-89
2021/12/30 08:56:12;;;;;;;984.10;926.10;;;;;;;20.87;47.38;101259.75;5019545;28;20132;-86
2021/12/30 08:58:39;;;;;;;988.70;929.92;;;;;;;20.88;47.50;101264.13;5018835;28;20435;-87
2021/12/30 09:01:05;;;;;;;990.35;931.22;;;;;;;20.88;47.29;101253.13;5033856;28;20049;-88
2021/12/30 09:03:30;;;;;;;982.35;924.50;;;;;;;20.89;47.32;101249.28;5026640;28;20072;-90
2021/12/30 09:05:56;;;;;;;974.15;917.33;;;;;;;20.92;47.48;101247.88;5017535;28;20504;-91
2021/12/30 09:08:21;;;;;;;977.90;920.70;;;;;;;20.91;47.69;101248.97;5015720;28;20029;-91
2021/12/30 09:10:50;;;;;;;295.40;283.83;;;;;;;20.89;48.12;101238.31;5013402;28;20037;-83
2021/12/30 09:13:18;;;;;;;492.15;473.30;;;;;;;20.89;48.50;101248.44;5015380;28;20035;-81
2021/12/30 09:15:44;;;;;;;;;;;;;;;20.85;48.73;101245.50;5013602;28;20040;-81
2021/12/30 09:18:10;;;;;;;518.70;498.58;;;;;;;20.85;48.35;101234.50;5030675;28;20372;-82
2021/12/30 09:20:38;;;;;;;515.10;494.83;;;;;;;20.86;48.66;101243.56;5017505;28;20037;-81
2021/12/30 09:23:05;;;;;;;314.53;302.03;;;;;;;20.85;48.45;101247.44;5030740;28;20037;-81
2021/12/30 09:25:30;;;;;;;277.08;265.80;;;;;;;20.85;48.45;101259.22;5049343;28;20501;-81
2021/12/30 09:27:56;;;;;;;291.60;279.27;;;;;;;20.85;48.42;101253.75;5011556;28;20048;-82
2021/12/30 09:30:24;;;;;;;269.77;259.15;;;;;;;20.86;48.44;101254.53;5031147;28;20488;-85
2021/12/30 09:32:51;;;;;;;296.25;284.67;;;;;;;20.86;48.81;101266.34;5029541;28;20548;-85
2021/12/30 09:35:17;;;;;;;476.30;457.80;;;;;;;20.87;48.94;101265.25;5031008;28;20017;-84
2021/12/30 09:37:42;;;;;;;607.40;583.40;;;;;;;20.87;48.86;101265.25;5026406;28;20043;-88
2021/12/30 09:40:12;;;;;;;342.35;329.17;;;;;;;20.89;48.59;101273.16;5049411;28;20108;-86
2021/12/30 09:42:39;;;;;;;670.92;643.63;;;;;;;20.89;48.93;101273.16;5012277;28;20105;-86
2021/12/30 09:45:05;;;;;;;699.88;670.42;;;;;;;20.89;48.93;101271.25;5029540;28;20081;-86
2021/12/30 09:47:33;;;;;;;285.73;274.52;;;;;;;20.90;48.63;101283.84;5007891;28;20040;-85
2021/12/30 09:49:58;;;;;;;272.38;261.85;;;;;;;20.91;49.06;101273.69;5017375;28;20037;-86
2021/12/30 09:52:25;;;;;;;264.65;254.35;;;;;;;20.91;48.89;101276.44;5033770;28;20052;-85
2021/12/30 09:54:50;;;;;;;266.85;256.48;;;;;;;20.91;48.70;101277.25;5016660;28;20843;-85
2021/12/30 09:57:16;;;;;;;250.20;240.02;;;;;;;20.92;48.92;101283.56;5045814;28;20040;-85
2021/12/30 09:59:44;;;;;;;245.93;236.30;;;;;;;20.93;48.85;101279.69;5029516;28;20041;-86
2021/12/30 10:02:09;;;;;;;244.95;235.20;;;;;;;20.93;48.49;101282.44;5016694;28;20132;-86
2021/12/30 10:04:36;;;;;;;241.20;231.60;;;;;;;20.94;48.79;101273.06;5007719;28;20250;-85
2021/12/30 10:07:16;;;;;;;254.57;244.45;;;;;;;20.94;48.50;101286.81;5042912;28;20100;-85
2021/12/30 10:09:53;;;;;;;253.23;243.02;;;;;;;20.95;48.69;101288.47;5015384;28;20124;-86
2021/12/30 10:12:45;;;;;;;246.63;236.55;;;;;;;20.95;48.67;101285.72;5016905;28;20415;-85
2021/12/30 10:15:11;;;;;;;248.30;238.35;;;;;;;20.95;48.56;101286.53;5046883;28;20037;-83
2021/12/30 10:17:37;;;;;;;260.45;250.32;;;;;;;20.95;48.63;101292.00;5045593;28;20366;-84
2021/12/30 10:20:25;;;;;;;266.08;255.75;;;;;;;20.95;48.90;101297.50;5049385;28;20029;-84
2021/12/30 10:22:53;;;;;;;259.30;249.15;;;;;;;20.95;48.69;101296.69;5017660;28;20906;-83
2021/12/30 10:25:28;;;;;;;252.45;242.38;;;;;;;20.96;48.82;101290.91;5034328;28;20487;-84
2021/12/30 10:27:54;;;;;;;253.75;243.65;;;;;;;20.97;48.37;101288.97;5026110;28;21246;-84
2021/12/30 10:30:33;;;;;;;257.55;247.02;;;;;;;20.97;48.49;101291.72;5052994;28;20044;-86
2021/12/30 10:33:13;;;;;;;280.23;269.13;;;;;;;20.98;48.37;101284.28;5026267;28;20091;-86
2021/12/30 10:35:39;;;;;;;261.17;250.88;;;;;;;20.97;48.73;101286.22;5032874;28;20068;-86
2021/12/30 10:38:08;;;;;;;265.35;254.75;;;;;;;20.98;48.82;101284.28;5017279;28;20061;-87
2021/12/30 10:40:36;;;;;;;308.20;295.65;;;;;;;20.98;48.21;101284.28;5035614;28;20056;-90
2021/12/30 10:46:25;;;;;;;500.77;481.52;;;;;;;20.98;48.60;101287.84;5027752;28;20330;-86
2021/12/30 10:48:55;;;;;;;285.95;274.90;;;;;;;20.99;48.33;101292.25;5002431;28;20183;-86
2021/12/30 10:51:24;;;;;;;306.65;294.77;;;;;;;20.99;48.62;101289.50;5053817;28;20086;-85
2021/12/30 10:53:52;;;;;;;516.85;497.15;;;;;;;21.01;48.30;101289.19;5023319;28;20026;-85
2021/12/30 10:56:28;;;;;;;548.85;527.75;;;;;;;21.00;48.39;101288.38;4999637;28;20037;-86